Terminal Aerodrome Forecast
Issued by NWS Sioux Falls, SD

Home | Current Version | Previous Version | Text Only | Print | Product List | Glossary On
Versions: 1 2 3 4 5 6 7 8 9 10 11 12 13 14 15 16 17 18 19 20 21 22 23 24 25
000
FTUS43 KFSD 271736
TAFSUX
TAF
KSUX 271736Z 2718/2818 12004KT P6SM SCT120
     FM280800 12006KT 3SM BR OVC009
     FM281000 12006KT 1SM BR OVC005
     FM281100 17006KT 1/2SM FG OVC004
     FM281300 24007KT 2SM BR OVC008
     FM281600 26008KT 6SM BR OVC008=

USA.gov is the U.S. government's official web portal to all federal, state and local government web resources and services.